createdAt,value
2023-01-20T00:00:40.741Z,0.00
2023-01-20T00:01:40.848Z,0.00
2023-01-20T00:02:41.065Z,0.00
2023-01-20T00:03:41.139Z,0.00
2023-01-20T00:04:41.235Z,0.00
2023-01-20T00:05:41.323Z,0.00
2023-01-20T00:06:41.461Z,0.00
2023-01-20T00:07:43.049Z,0.00
2023-01-20T00:08:41.762Z,0.00
2023-01-20T00:09:42.004Z,0.00
2023-01-20T00:10:42.110Z,0.00
2023-01-20T00:11:42.130Z,0.00
2023-01-20T00:12:42.309Z,0.00
2023-01-20T00:13:42.412Z,0.00
2023-01-20T00:14:42.558Z,0.00
2023-01-20T00:15:42.729Z,0.00
2023-01-20T00:16:42.826Z,0.00
2023-01-20T00:17:43.032Z,0.00
2023-01-20T00:18:43.123Z,0.00
2023-01-20T00:19:43.223Z,0.00
2023-01-20T00:20:43.389Z,0.00
2023-01-20T00:21:43.461Z,0.00
2023-01-20T00:22:43.707Z,0.00
2023-01-20T00:23:43.758Z,0.00
2023-01-20T00:24:43.931Z,0.00
2023-01-20T00:25:44.083Z,0.00
2023-01-20T00:26:44.308Z,0.00
2023-01-20T00:27:44.388Z,0.00
2023-01-20T00:28:44.501Z,0.00
2023-01-20T00:29:44.646Z,0.00
2023-01-20T00:30:44.744Z,0.00
2023-01-20T00:31:44.899Z,0.00
2023-01-20T00:32:45.167Z,0.00
2023-01-20T00:33:45.161Z,0.00
2023-01-20T00:34:45.342Z,0.00
2023-01-20T00:35:45.434Z,0.00
2023-01-20T00:36:45.558Z,0.00
2023-01-20T00:37:45.728Z,0.00
2023-01-20T00:38:45.865Z,0.00
2023-01-20T00:39:46.010Z,0.00
2023-01-20T00:40:46.112Z,0.00
2023-01-20T00:41:46.257Z,0.00
2023-01-20T00:42:46.426Z,0.00
2023-01-20T00:43:46.559Z,0.00
2023-01-20T00:44:46.698Z,0.00
2023-01-20T00:45:46.813Z,0.00
2023-01-20T00:46:47.008Z,0.00
2023-01-20T00:47:47.139Z,0.00
2023-01-20T00:48:47.257Z,0.00
2023-01-20T00:49:47.425Z,0.00
2023-01-20T00:50:47.575Z,0.00
2023-01-20T00:51:47.766Z,0.00
2023-01-20T00:52:47.911Z,0.00
2023-01-20T00:53:57.365Z,0.00
2023-01-20T00:54:48.884Z,0.00
2023-01-20T00:55:48.302Z,0.00
2023-01-20T00:56:48.371Z,0.00
2023-01-20T00:57:48.536Z,0.00
2023-01-20T00:58:48.663Z,0.00
2023-01-20T00:59:48.760Z,0.00
2023-01-20T01:00:48.896Z,0.00
2023-01-20T01:01:49.144Z,0.00
2023-01-20T01:02:49.139Z,0.00
2023-01-20T01:03:49.276Z,0.00
2023-01-20T01:04:49.436Z,0.00
2023-01-20T01:05:49.602Z,0.00
2023-01-20T01:06:49.725Z,0.00
2023-01-20T01:07:49.853Z,0.00
2023-01-20T01:08:49.976Z,0.00
2023-01-20T01:09:50.111Z,0.00
2023-01-20T01:10:50.301Z,0.00
2023-01-20T01:11:50.361Z,0.00
2023-01-20T01:12:50.480Z,0.00
2023-01-20T01:13:50.782Z,0.00
2023-01-20T01:14:50.733Z,0.00
2023-01-20T01:15:50.924Z,0.00
2023-01-20T01:16:51.028Z,0.00
2023-01-20T01:17:51.176Z,0.00
2023-01-20T01:18:51.303Z,0.00
2023-01-20T01:19:51.422Z,0.00
2023-01-20T01:20:51.598Z,0.00
2023-01-20T01:21:51.689Z,0.00
2023-01-20T01:22:51.828Z,0.00
2023-01-20T01:23:51.966Z,0.00
2023-01-20T01:24:52.113Z,0.00
2023-01-20T01:25:52.237Z,0.00
2023-01-20T01:26:52.373Z,0.00
2023-01-20T01:27:52.531Z,0.00
2023-01-20T01:28:52.659Z,0.00
2023-01-20T01:29:52.789Z,0.00
2023-01-20T01:30:52.968Z,0.00
2023-01-20T01:31:53.091Z,0.00
2023-01-20T01:32:53.182Z,0.00
2023-01-20T01:33:53.339Z,0.00
2023-01-20T01:34:53.459Z,0.00
2023-01-20T01:35:53.627Z,0.00
2023-01-20T01:36:53.746Z,0.00
2023-01-20T01:37:53.880Z,0.00
2023-01-20T01:38:57.068Z,0.00
2023-01-20T01:39:55.203Z,0.00
2023-01-20T01:40:54.325Z,0.00
2023-01-20T01:41:54.627Z,0.00
2023-01-20T01:42:54.621Z,0.00
2023-01-20T01:43:54.796Z,0.00
2023-01-20T01:44:54.938Z,0.00
2023-01-20T01:45:55.097Z,0.00
2023-01-20T01:46:55.219Z,0.00
2023-01-20T01:47:55.392Z,0.00
2023-01-20T01:48:55.504Z,0.00
2023-01-20T01:49:55.645Z,0.00
2023-01-20T01:50:55.781Z,0.00
2023-01-20T01:51:55.937Z,0.00
2023-01-20T01:52:56.080Z,0.00
2023-01-20T01:53:56.201Z,0.00
2023-01-20T01:54:56.315Z,0.00
2023-01-20T01:55:56.447Z,0.00
2023-01-20T01:56:56.597Z,0.00
2023-01-20T01:57:56.725Z,0.00
2023-01-20T01:58:56.865Z,0.00
2023-01-20T01:59:56.984Z,0.00
2023-01-20T02:00:57.163Z,0.00
2023-01-20T02:01:57.304Z,0.00
2023-01-20T02:02:59.246Z,0.00
2023-01-20T02:03:57.513Z,0.00
2023-01-20T02:04:57.650Z,0.00
2023-01-20T02:05:57.793Z,0.00
2023-01-20T02:06:57.904Z,0.00
2023-01-20T02:07:58.064Z,0.00
2023-01-20T02:08:58.263Z,0.00
2023-01-20T02:09:58.383Z,0.00
2023-01-20T02:10:58.503Z,0.00
2023-01-20T02:11:58.635Z,0.00
2023-01-20T02:12:58.804Z,0.00
2023-01-20T02:13:58.983Z,0.00
2023-01-20T02:14:59.115Z,0.00
2023-01-20T02:15:59.254Z,0.00
2023-01-20T02:16:59.403Z,0.00
2023-01-20T02:17:59.552Z,0.00
2023-01-20T02:18:59.684Z,0.00
2023-01-20T02:19:59.824Z,0.00
2023-01-20T02:20:59.976Z,0.00
2023-01-20T02:22:00.141Z,0.00
2023-01-20T02:23:00.220Z,0.00
2023-01-20T02:24:00.343Z,0.00
2023-01-20T02:25:00.459Z,0.00
2023-01-20T02:26:00.578Z,0.00
2023-01-20T02:27:00.742Z,0.00
2023-01-20T02:28:00.882Z,0.00
2023-01-20T02:29:00.990Z,0.00
2023-01-20T02:30:01.167Z,0.00
2023-01-20T02:31:01.242Z,0.00
2023-01-20T02:32:01.412Z,0.00
2023-01-20T02:33:01.598Z,0.00
2023-01-20T02:34:01.722Z,0.00
2023-01-20T02:35:01.881Z,0.00
2023-01-20T02:36:02.039Z,0.00
2023-01-20T02:37:02.131Z,0.00
2023-01-20T02:38:02.324Z,0.00
2023-01-20T02:39:03.200Z,0.00
2023-01-20T02:40:02.598Z,0.00
2023-01-20T02:41:02.730Z,0.00
2023-01-20T02:42:02.867Z,0.00
2023-01-20T02:43:03.005Z,0.00
2023-01-20T02:44:03.165Z,0.00
2023-01-20T02:45:03.299Z,0.00
2023-01-20T02:46:03.524Z,0.00
2023-01-20T02:47:03.598Z,0.00
2023-01-20T02:48:03.784Z,0.00
2023-01-20T02:49:03.892Z,0.00
2023-01-20T02:50:04.036Z,0.00
2023-01-20T02:51:04.800Z,0.00
2023-01-20T02:52:04.304Z,0.00
2023-01-20T02:53:04.453Z,0.00
2023-01-20T02:54:04.633Z,0.00
2023-01-20T02:55:04.807Z,0.00
2023-01-20T02:56:05.019Z,0.00
2023-01-20T02:57:05.108Z,0.00
2023-01-20T02:58:05.288Z,0.00
2023-01-20T02:59:05.365Z,0.00
2023-01-20T03:00:05.514Z,0.00
2023-01-20T03:01:05.793Z,0.00
2023-01-20T03:02:05.950Z,0.00
2023-01-20T03:03:06.026Z,0.00
2023-01-20T03:04:06.218Z,0.00
2023-01-20T03:05:06.284Z,0.00
2023-01-20T03:06:06.572Z,0.00
2023-01-20T03:07:06.524Z,0.00
2023-01-20T03:08:06.675Z,0.00
2023-01-20T03:09:06.825Z,0.00
2023-01-20T03:10:07.007Z,0.00
2023-01-20T03:11:07.142Z,0.00
2023-01-20T03:12:07.380Z,0.00
2023-01-20T03:13:08.426Z,0.00
2023-01-20T03:14:07.662Z,0.00
2023-01-20T03:15:07.815Z,0.00
2023-01-20T03:16:07.988Z,0.00
2023-01-20T03:17:08.108Z,0.00
2023-01-20T03:18:08.260Z,0.00
2023-01-20T03:19:08.372Z,0.00
2023-01-20T03:20:08.540Z,0.00
2023-01-20T03:21:08.728Z,0.00
2023-01-20T03:22:08.819Z,0.00
2023-01-20T03:23:08.980Z,0.00
2023-01-20T03:24:09.132Z,0.00
2023-01-20T03:25:09.225Z,0.00
2023-01-20T03:26:09.400Z,0.00
2023-01-20T03:27:09.501Z,0.00
2023-01-20T03:28:09.648Z,0.00
2023-01-20T03:29:09.802Z,0.00
2023-01-20T03:30:09.962Z,0.00
2023-01-20T03:31:10.344Z,0.00
2023-01-20T03:32:10.302Z,0.00
2023-01-20T03:33:10.378Z,0.00
2023-01-20T03:34:10.568Z,0.00
2023-01-20T03:35:10.709Z,0.00
2023-01-20T03:36:10.878Z,0.00
2023-01-20T03:37:11.152Z,0.00
2023-01-20T03:38:11.215Z,0.00
2023-01-20T03:39:11.363Z,0.00
2023-01-20T03:40:11.465Z,0.00
2023-01-20T03:41:11.635Z,0.00
2023-01-20T03:42:11.820Z,0.00
2023-01-20T03:43:11.901Z,0.00
2023-01-20T03:44:12.019Z,0.00
2023-01-20T03:45:12.171Z,0.00
2023-01-20T03:46:12.375Z,0.00
2023-01-20T03:47:12.440Z,0.00
2023-01-20T03:48:12.615Z,0.00
2023-01-20T03:49:12.701Z,0.00
2023-01-20T03:50:12.864Z,0.00
2023-01-20T03:51:13.022Z,0.00
2023-01-20T03:52:13.163Z,0.00
2023-01-20T03:53:13.314Z,0.00
2023-01-20T03:54:13.492Z,0.00
2023-01-20T03:55:14.095Z,0.00
2023-01-20T03:56:13.781Z,0.00
2023-01-20T03:57:13.853Z,0.00
2023-01-20T03:58:14.000Z,0.00
2023-01-20T03:59:14.128Z,0.00
2023-01-20T04:00:14.278Z,0.00
2023-01-20T04:01:18.786Z,0.00
2023-01-20T04:02:14.764Z,0.00
2023-01-20T04:03:14.693Z,0.00
2023-01-20T04:04:14.853Z,0.00
2023-01-20T04:05:15.358Z,0.00
2023-01-20T04:06:15.178Z,0.00
2023-01-20T04:07:15.309Z,0.00
2023-01-20T04:08:15.485Z,0.00
2023-01-20T04:09:15.655Z,0.00
2023-01-20T04:10:15.756Z,0.00
2023-01-20T04:11:15.925Z,0.00
2023-01-20T04:12:16.091Z,0.00
2023-01-20T04:13:16.280Z,0.00
2023-01-20T04:14:16.352Z,0.00
2023-01-20T04:15:17.137Z,0.00
2023-01-20T04:16:16.637Z,0.00
2023-01-20T04:17:16.884Z,0.00
2023-01-20T04:18:16.923Z,0.00
2023-01-20T04:19:17.084Z,0.00
2023-01-20T04:20:17.257Z,0.00
2023-01-20T04:21:17.395Z,0.00
2023-01-20T04:22:17.570Z,0.00
2023-01-20T04:23:17.676Z,0.00
2023-01-20T04:24:17.819Z,0.00
2023-01-20T04:25:17.912Z,0.00
2023-01-20T04:26:18.055Z,0.00
2023-01-20T04:27:18.231Z,0.00
2023-01-20T04:28:18.390Z,0.00
2023-01-20T04:29:18.550Z,0.00
2023-01-20T04:30:18.774Z,0.00
2023-01-20T04:31:30.148Z,0.00
2023-01-20T04:32:20.051Z,0.00
2023-01-20T04:33:19.179Z,0.00
2023-01-20T04:34:19.395Z,0.00
2023-01-20T04:35:19.523Z,0.00
2023-01-20T04:36:19.641Z,0.00
2023-01-20T04:37:19.822Z,0.00
2023-01-20T04:38:19.990Z,0.00
2023-01-20T04:39:20.089Z,0.00
2023-01-20T04:40:20.267Z,0.00
2023-01-20T04:41:20.339Z,0.00
2023-01-20T04:42:20.508Z,0.00
2023-01-20T04:43:20.677Z,0.00
2023-01-20T04:44:20.851Z,0.00
2023-01-20T04:45:20.989Z,0.00
2023-01-20T04:46:21.235Z,0.00
2023-01-20T04:47:21.241Z,0.00
2023-01-20T04:48:21.397Z,0.00
2023-01-20T04:49:21.640Z,0.00
2023-01-20T04:50:21.727Z,0.00
2023-01-20T04:51:21.895Z,0.00
2023-01-20T04:52:22.235Z,0.00
2023-01-20T04:53:22.179Z,0.00
2023-01-20T04:54:22.249Z,0.00
2023-01-20T04:55:22.422Z,0.00
2023-01-20T04:56:22.688Z,0.00
2023-01-20T04:57:22.747Z,0.00
2023-01-20T04:58:22.895Z,0.00
2023-01-20T04:59:23.072Z,0.00
2023-01-20T05:00:23.252Z,0.00
2023-01-20T05:01:23.391Z,0.00
2023-01-20T05:02:23.631Z,0.00
2023-01-20T05:03:23.584Z,0.00
2023-01-20T05:04:23.762Z,0.00
2023-01-20T05:05:23.962Z,0.00
2023-01-20T05:06:24.083Z,0.00
2023-01-20T05:07:24.197Z,0.00
2023-01-20T05:08:24.371Z,0.00
2023-01-20T05:09:24.506Z,0.00
2023-01-20T05:10:24.714Z,0.00
2023-01-20T05:11:24.848Z,0.00
2023-01-20T05:12:24.996Z,0.00
2023-01-20T05:13:25.111Z,0.00
2023-01-20T05:14:25.276Z,0.00
2023-01-20T05:15:25.531Z,0.00
2023-01-20T05:16:25.606Z,0.00
2023-01-20T05:17:25.767Z,0.00
2023-01-20T05:18:25.943Z,0.00
2023-01-20T05:19:26.036Z,0.00
2023-01-20T05:20:26.245Z,0.00
2023-01-20T05:21:26.352Z,0.00
2023-01-20T05:22:26.552Z,0.00
2023-01-20T05:23:26.694Z,0.00
2023-01-20T05:24:26.824Z,0.00
2023-01-20T05:25:26.947Z,0.00
2023-01-20T05:26:27.116Z,0.00
2023-01-20T05:27:27.273Z,0.00
2023-01-20T05:28:27.465Z,0.00
2023-01-20T05:29:27.548Z,0.00
2023-01-20T05:30:27.807Z,0.00
2023-01-20T05:31:27.844Z,0.00
2023-01-20T05:32:27.957Z,0.00
2023-01-20T05:33:28.103Z,0.00
2023-01-20T05:34:28.301Z,0.00
2023-01-20T05:35:28.422Z,0.00
2023-01-20T05:36:28.573Z,0.00
2023-01-20T05:37:28.693Z,0.00
2023-01-20T05:38:28.866Z,0.00
2023-01-20T05:39:29.044Z,0.00
2023-01-20T05:40:29.190Z,0.00
2023-01-20T05:41:29.316Z,0.00
2023-01-20T05:42:29.414Z,0.00
2023-01-20T05:43:29.533Z,0.00
2023-01-20T05:44:29.773Z,0.00
2023-01-20T05:45:29.947Z,0.00
2023-01-20T05:46:30.015Z,0.00
2023-01-20T05:47:30.123Z,0.00
2023-01-20T05:48:30.238Z,0.00
2023-01-20T05:49:30.387Z,0.00
2023-01-20T05:50:30.577Z,0.00
2023-01-20T05:51:30.755Z,0.00
2023-01-20T05:52:30.835Z,0.00
2023-01-20T05:53:31.019Z,0.00
2023-01-20T05:54:31.132Z,0.00
2023-01-20T05:55:31.298Z,0.00
2023-01-20T05:56:31.427Z,0.00
2023-01-20T05:57:31.597Z,0.00
2023-01-20T05:58:31.753Z,0.00
2023-01-20T05:59:31.893Z,0.00
2023-01-20T06:00:32.124Z,0.00
2023-01-20T06:01:32.340Z,0.00
2023-01-20T06:02:32.418Z,0.00
2023-01-20T06:03:32.535Z,0.00
2023-01-20T06:04:33.228Z,0.00
2023-01-20T06:05:32.837Z,0.00
2023-01-20T06:06:32.945Z,0.00
2023-01-20T06:07:33.095Z,0.00
2023-01-20T06:08:33.255Z,0.00
2023-01-20T06:09:33.442Z,0.00
2023-01-20T06:10:33.560Z,0.00
2023-01-20T06:11:33.688Z,0.00
2023-01-20T06:12:33.783Z,0.00
2023-01-20T06:13:33.916Z,0.00
2023-01-20T06:14:34.131Z,0.00
2023-01-20T06:15:34.252Z,0.00
2023-01-20T06:16:34.441Z,0.00
2023-01-20T06:17:34.572Z,0.00
2023-01-20T06:18:34.682Z,0.00
2023-01-20T06:19:34.818Z,0.00
2023-01-20T06:20:35.054Z,0.00
2023-01-20T06:21:35.067Z,0.00
2023-01-20T06:22:35.212Z,0.00
2023-01-20T06:23:35.502Z,0.00
2023-01-20T06:24:35.528Z,0.00
2023-01-20T06:25:35.761Z,0.00
2023-01-20T06:26:35.840Z,0.00
2023-01-20T06:27:36.843Z,0.00
2023-01-20T06:28:36.075Z,0.00
2023-01-20T06:29:36.310Z,0.00
2023-01-20T06:30:36.478Z,0.00
2023-01-20T06:31:36.583Z,0.00
2023-01-20T06:32:36.644Z,0.00
2023-01-20T06:33:36.817Z,0.00
2023-01-20T06:34:36.931Z,0.00
2023-01-20T06:35:37.106Z,0.00
2023-01-20T06:36:37.303Z,0.00
2023-01-20T06:37:37.411Z,0.00
2023-01-20T06:38:37.569Z,0.00
2023-01-20T06:39:37.649Z,0.00
2023-01-20T06:40:37.836Z,0.00
2023-01-20T06:41:38.015Z,0.00
2023-01-20T06:42:38.093Z,0.00
2023-01-20T06:43:38.259Z,0.00
2023-01-20T06:44:38.409Z,0.00
2023-01-20T06:45:38.580Z,0.00
2023-01-20T06:46:38.803Z,0.00
2023-01-20T06:47:38.848Z,0.00
2023-01-20T06:48:38.980Z,0.00
2023-01-20T06:49:39.153Z,0.00
2023-01-20T06:50:39.288Z,0.00
2023-01-20T06:51:39.494Z,0.00
2023-01-20T06:52:39.540Z,0.00
2023-01-20T06:53:39.744Z,0.00
2023-01-20T06:54:48.495Z,0.00
2023-01-20T06:55:39.970Z,0.00
2023-01-20T06:56:40.097Z,0.00
2023-01-20T06:57:40.179Z,0.00
2023-01-20T06:58:40.297Z,0.00
2023-01-20T06:59:40.446Z,0.00
2023-01-20T07:00:40.662Z,0.00
2023-01-20T07:01:40.942Z,0.00
2023-01-20T07:02:40.930Z,0.00
2023-01-20T07:03:41.143Z,0.00
2023-01-20T07:04:41.165Z,0.00
2023-01-20T07:05:41.327Z,0.00
2023-01-20T07:06:41.476Z,0.00
2023-01-20T07:07:41.575Z,0.00
2023-01-20T07:08:41.736Z,0.00
2023-01-20T07:09:41.915Z,0.00
2023-01-20T07:10:41.974Z,0.00
2023-01-20T07:11:42.106Z,0.00
2023-01-20T07:12:42.246Z,0.00
2023-01-20T07:13:42.414Z,0.00
2023-01-20T07:14:42.569Z,0.00
2023-01-20T07:15:42.709Z,0.00
2023-01-20T07:16:42.930Z,0.00
2023-01-20T07:17:43.055Z,0.00
2023-01-20T07:18:43.077Z,0.00
2023-01-20T07:19:43.221Z,0.00
2023-01-20T07:20:43.383Z,0.00
2023-01-20T07:21:43.561Z,0.00
2023-01-20T07:22:43.751Z,0.00
2023-01-20T07:23:43.786Z,0.00
2023-01-20T07:24:43.938Z,0.00
2023-01-20T07:25:44.073Z,0.00
2023-01-20T07:26:44.276Z,0.00
2023-01-20T07:27:44.405Z,0.00
2023-01-20T07:28:44.565Z,0.00
2023-01-20T07:29:44.679Z,0.00
2023-01-20T07:30:44.855Z,0.00
2023-01-20T07:31:45.020Z,0.00
2023-01-20T07:32:45.151Z,0.00
2023-01-20T07:33:45.292Z,0.00
2023-01-20T07:34:45.461Z,0.00
2023-01-20T07:35:45.585Z,0.00
2023-01-20T07:36:45.711Z,5.62
2023-01-20T07:37:45.886Z,5.62
2023-01-20T07:38:46.352Z,5.62
2023-01-20T07:39:46.128Z,5.62
2023-01-20T07:40:46.279Z,5.62
2023-01-20T07:41:46.416Z,5.62
2023-01-20T07:42:46.580Z,5.62
2023-01-20T07:43:46.691Z,5.62
2023-01-20T07:44:46.841Z,5.62
2023-01-20T07:45:47.069Z,11.25
2023-01-20T07:46:47.104Z,11.25
2023-01-20T07:47:47.238Z,11.25
2023-01-20T07:48:47.385Z,11.25
2023-01-20T07:49:47.581Z,11.25
2023-01-20T07:50:47.674Z,5.62
2023-01-20T07:51:47.819Z,11.25
2023-01-20T07:52:47.917Z,11.25
2023-01-20T07:53:48.110Z,11.25
2023-01-20T07:54:48.211Z,11.25
2023-01-20T07:55:48.353Z,16.88
2023-01-20T07:56:48.478Z,16.88
2023-01-20T07:57:48.621Z,16.88
2023-01-20T07:58:48.787Z,16.88
2023-01-20T07:59:48.940Z,16.88
2023-01-20T08:00:49.120Z,16.88
2023-01-20T08:01:49.287Z,16.88
2023-01-20T08:02:49.295Z,16.88
2023-01-20T08:03:49.451Z,16.88
2023-01-20T08:04:49.642Z,22.50
2023-01-20T08:05:49.741Z,16.88
2023-01-20T08:06:49.912Z,16.88
2023-01-20T08:07:50.084Z,16.88
2023-01-20T08:08:50.955Z,22.50
2023-01-20T08:09:50.487Z,22.50
2023-01-20T08:10:51.368Z,22.50
2023-01-20T08:11:50.654Z,28.12
2023-01-20T08:12:50.795Z,28.12
2023-01-20T08:13:50.985Z,28.12
2023-01-20T08:14:51.080Z,28.12
2023-01-20T08:15:51.269Z,22.50
2023-01-20T08:16:51.405Z,22.50
2023-01-20T08:17:51.452Z,22.50
2023-01-20T08:18:51.611Z,22.50
2023-01-20T08:19:51.773Z,28.12
2023-01-20T08:20:51.937Z,28.12
2023-01-20T08:21:52.128Z,28.12
2023-01-20T08:22:52.190Z,28.12
2023-01-20T08:23:52.435Z,28.12
2023-01-20T08:24:52.945Z,33.75
2023-01-20T08:25:52.784Z,33.75
2023-01-20T08:26:52.760Z,33.75
2023-01-20T08:27:52.944Z,33.75
2023-01-20T08:28:53.116Z,33.75
2023-01-20T08:29:53.256Z,33.75
2023-01-20T08:30:53.694Z,33.75
2023-01-20T08:31:53.773Z,33.75
2023-01-20T08:32:53.693Z,33.75
2023-01-20T08:33:53.857Z,33.75
2023-01-20T08:34:53.930Z,39.38
2023-01-20T08:35:54.097Z,45.00
2023-01-20T08:36:54.174Z,45.00
2023-01-20T08:37:54.368Z,45.00
2023-01-20T08:38:54.412Z,39.38
2023-01-20T08:39:54.576Z,39.38
2023-01-20T08:40:54.743Z,39.38
2023-01-20T08:41:54.900Z,39.38
2023-01-20T08:42:55.042Z,39.38
2023-01-20T08:43:55.195Z,39.38
2023-01-20T08:44:55.313Z,39.38
2023-01-20T08:45:55.514Z,39.38
2023-01-20T08:46:55.598Z,39.38
2023-01-20T08:47:55.697Z,45.00
2023-01-20T08:48:55.872Z,45.00
2023-01-20T08:49:55.952Z,45.00
2023-01-20T08:50:56.127Z,45.00
2023-01-20T08:51:56.271Z,45.00
2023-01-20T08:52:56.372Z,50.62
2023-01-20T08:53:56.540Z,56.25
2023-01-20T08:54:56.668Z,56.25
2023-01-20T08:55:56.820Z,56.25
2023-01-20T08:56:56.963Z,56.25
2023-01-20T08:57:57.107Z,56.25
2023-01-20T08:58:57.258Z,56.25
2023-01-20T08:59:57.320Z,61.88
2023-01-20T09:00:57.475Z,61.88
2023-01-20T09:01:57.605Z,73.12
2023-01-20T09:02:57.840Z,84.38
2023-01-20T09:04:06.843Z,95.62
2023-01-20T09:04:59.032Z,90.00
2023-01-20T09:05:58.174Z,84.38
2023-01-20T09:06:58.244Z,84.38
2023-01-20T09:07:58.388Z,84.38
2023-01-20T09:08:58.542Z,84.38
2023-01-20T09:09:58.687Z,95.62
2023-01-20T09:10:58.857Z,95.62
2023-01-20T09:11:58.995Z,90.00
2023-01-20T09:12:59.134Z,90.00
2023-01-20T09:13:59.315Z,84.38
2023-01-20T09:14:59.401Z,84.38
2023-01-20T09:15:59.602Z,90.00
2023-01-20T09:16:59.647Z,90.00
2023-01-20T09:17:59.873Z,95.62
2023-01-20T09:18:59.923Z,95.62
2023-01-20T09:20:00.060Z,95.62
2023-01-20T09:21:00.225Z,106.88
2023-01-20T09:22:00.373Z,112.50
2023-01-20T09:23:00.523Z,118.12
2023-01-20T09:24:00.711Z,123.75
2023-01-20T09:25:00.783Z,129.38
2023-01-20T09:26:00.956Z,129.38
2023-01-20T09:27:01.145Z,129.38
2023-01-20T09:28:01.301Z,135.00
2023-01-20T09:29:01.448Z,135.00
2023-01-20T09:30:01.607Z,135.00
2023-01-20T09:31:01.772Z,135.00
2023-01-20T09:32:01.953Z,135.00
2023-01-20T09:33:01.995Z,135.00
2023-01-20T09:34:02.125Z,135.00
2023-01-20T09:35:02.284Z,135.00
2023-01-20T09:36:02.473Z,129.38
2023-01-20T09:37:02.556Z,135.00
2023-01-20T09:38:02.685Z,135.00
2023-01-20T09:39:02.823Z,129.38
2023-01-20T09:40:03.006Z,123.75
2023-01-20T09:41:03.177Z,129.38
2023-01-20T09:42:03.356Z,135.00
2023-01-20T09:43:03.434Z,140.62
2023-01-20T09:44:03.583Z,146.25
2023-01-20T09:45:03.742Z,151.88
2023-01-20T09:46:03.954Z,174.38
2023-01-20T09:47:04.091Z,168.75
2023-01-20T09:48:04.212Z,168.75
2023-01-20T09:49:04.310Z,163.12
2023-01-20T09:50:04.463Z,163.12
2023-01-20T09:51:04.550Z,163.12
2023-01-20T09:52:04.709Z,157.50
2023-01-20T09:53:04.956Z,157.50
2023-01-20T09:54:04.990Z,163.12
2023-01-20T09:55:05.175Z,157.50
2023-01-20T09:56:07.690Z,151.88
2023-01-20T09:57:05.392Z,140.62
2023-01-20T09:58:05.546Z,135.00
2023-01-20T09:59:05.703Z,135.00
2023-01-20T10:00:05.864Z,129.38
2023-01-20T10:01:06.047Z,129.38
2023-01-20T10:02:06.154Z,129.38
2023-01-20T10:03:06.335Z,135.00
2023-01-20T10:04:06.407Z,135.00
2023-01-20T10:05:06.544Z,140.62
2023-01-20T10:06:06.679Z,146.25
2023-01-20T10:07:06.835Z,157.50
2023-01-20T10:08:07.008Z,157.50
2023-01-20T10:09:07.121Z,146.25
2023-01-20T10:10:07.188Z,140.62
2023-01-20T10:11:07.360Z,140.62
2023-01-20T10:12:07.457Z,135.00
2023-01-20T10:13:07.608Z,129.38
2023-01-20T10:14:07.761Z,129.38
2023-01-20T10:15:07.943Z,135.00
2023-01-20T10:16:08.047Z,135.00
2023-01-20T10:17:08.208Z,135.00
2023-01-20T10:18:08.343Z,129.38
2023-01-20T10:19:08.484Z,129.38
2023-01-20T10:20:08.652Z,135.00
2023-01-20T10:21:08.745Z,135.00
2023-01-20T10:22:08.884Z,135.00
2023-01-20T10:23:10.485Z,135.00
2023-01-20T10:24:09.191Z,140.62
2023-01-20T10:25:09.337Z,129.38
2023-01-20T10:26:09.522Z,129.38
2023-01-20T10:27:09.668Z,135.00
2023-01-20T10:28:09.796Z,135.00
2023-01-20T10:29:09.941Z,146.25
2023-01-20T10:30:10.144Z,151.88
2023-01-20T10:31:10.322Z,140.62
2023-01-20T10:32:10.346Z,140.62
2023-01-20T10:33:10.512Z,135.00
2023-01-20T10:34:10.609Z,129.38
2023-01-20T10:35:10.817Z,135.00
2023-01-20T10:36:10.883Z,135.00
2023-01-20T10:37:11.058Z,135.00
2023-01-20T10:38:11.200Z,135.00
2023-01-20T10:39:11.390Z,135.00
2023-01-20T10:40:11.530Z,135.00
2023-01-20T10:41:13.384Z,135.00
2023-01-20T10:42:11.794Z,140.62
2023-01-20T10:43:11.914Z,146.25
2023-01-20T10:44:12.029Z,151.88
2023-01-20T10:45:12.194Z,146.25
2023-01-20T10:46:12.667Z,146.25
2023-01-20T10:47:13.682Z,151.88
2023-01-20T10:48:12.614Z,151.88
2023-01-20T10:49:12.771Z,151.88
2023-01-20T10:50:12.942Z,151.88
2023-01-20T10:51:13.075Z,157.50
2023-01-20T10:52:13.231Z,163.12
2023-01-20T10:53:13.671Z,157.50
2023-01-20T10:54:13.442Z,157.50
2023-01-20T10:55:13.960Z,157.50
2023-01-20T10:56:13.764Z,157.50
2023-01-20T10:57:13.864Z,157.50
2023-01-20T10:58:13.961Z,163.12
2023-01-20T10:59:14.159Z,163.12
2023-01-20T11:00:14.494Z,168.75
2023-01-20T11:01:14.353Z,174.38
2023-01-20T11:02:14.580Z,146.25
2023-01-20T11:03:14.665Z,129.38
2023-01-20T11:04:14.753Z,135.00
2023-01-20T11:05:14.935Z,140.62
2023-01-20T11:06:15.063Z,123.75
2023-01-20T11:07:15.298Z,129.38
2023-01-20T11:08:15.319Z,140.62
2023-01-20T11:09:15.460Z,140.62
2023-01-20T11:10:15.941Z,135.00
2023-01-20T11:11:15.781Z,135.00
2023-01-20T11:12:15.934Z,151.88
2023-01-20T11:13:16.472Z,157.50
2023-01-20T11:14:16.451Z,140.62
2023-01-20T11:15:16.333Z,140.62
2023-01-20T11:16:16.464Z,151.88
2023-01-20T11:17:16.645Z,163.12
2023-01-20T11:18:16.735Z,168.75
2023-01-20T11:19:16.889Z,174.38
2023-01-20T11:20:17.529Z,174.38
2023-01-20T11:21:17.169Z,168.75
2023-01-20T11:22:17.337Z,168.75
2023-01-20T11:23:17.517Z,168.75
2023-01-20T11:24:17.678Z,146.25
2023-01-20T11:25:17.781Z,140.62
2023-01-20T11:26:18.678Z,151.88
2023-01-20T11:27:18.130Z,151.88
2023-01-20T11:28:18.259Z,157.50
2023-01-20T11:29:18.419Z,157.50
2023-01-20T11:30:18.634Z,151.88
2023-01-20T11:31:18.739Z,146.25
2023-01-20T11:32:18.816Z,140.62
2023-01-20T11:33:18.966Z,118.12
2023-01-20T11:34:19.040Z,101.25
2023-01-20T11:35:19.239Z,90.00
2023-01-20T11:36:20.026Z,101.25
2023-01-20T11:37:19.410Z,123.75
2023-01-20T11:38:19.759Z,129.38
2023-01-20T11:39:19.738Z,135.00
2023-01-20T11:40:19.826Z,129.38
2023-01-20T11:41:19.982Z,129.38
2023-01-20T11:42:20.209Z,118.12
2023-01-20T11:43:20.278Z,123.75
2023-01-20T11:44:20.430Z,123.75
2023-01-20T11:45:21.739Z,129.38
2023-01-20T11:46:20.679Z,123.75
2023-01-20T11:47:20.828Z,112.50
2023-01-20T11:48:21.093Z,106.88
2023-01-20T11:49:22.145Z,106.88
2023-01-20T11:50:21.369Z,112.50
2023-01-20T11:51:21.403Z,112.50
2023-01-20T11:52:21.595Z,118.12
2023-01-20T11:53:21.704Z,118.12
2023-01-20T11:54:21.843Z,118.12
2023-01-20T11:55:22.049Z,123.75
2023-01-20T11:56:22.124Z,123.75
2023-01-20T11:57:22.310Z,129.38
2023-01-20T11:58:22.394Z,129.38
2023-01-20T11:59:22.557Z,129.38
2023-01-20T12:00:22.682Z,129.38
2023-01-20T12:01:22.827Z,123.75
2023-01-20T12:02:22.964Z,129.38
2023-01-20T12:03:23.119Z,129.38
2023-01-20T12:04:23.379Z,129.38
2023-01-20T12:05:23.420Z,140.62
2023-01-20T12:06:23.901Z,146.25
2023-01-20T12:07:23.695Z,151.88
2023-01-20T12:08:23.841Z,151.88
2023-01-20T12:09:24.000Z,151.88
2023-01-20T12:10:24.174Z,146.25
2023-01-20T12:11:24.353Z,140.62
2023-01-20T12:12:24.427Z,135.00
2023-01-20T12:13:24.570Z,135.00
2023-01-20T12:14:24.740Z,129.38
2023-01-20T12:15:24.911Z,135.00
2023-01-20T12:16:25.174Z,140.62
2023-01-20T12:17:25.161Z,135.00
2023-01-20T12:18:25.955Z,129.38
2023-01-20T12:19:26.149Z,123.75
2023-01-20T12:20:26.353Z,118.12
2023-01-20T12:21:26.117Z,112.50
2023-01-20T12:22:25.751Z,112.50
2023-01-20T12:23:25.910Z,112.50
2023-01-20T12:24:35.452Z,112.50
2023-01-20T12:25:27.166Z,118.12
2023-01-20T12:26:26.300Z,118.12
2023-01-20T12:27:26.409Z,112.50
2023-01-20T12:28:26.508Z,118.12
2023-01-20T12:29:26.692Z,118.12
2023-01-20T12:30:26.770Z,123.75
2023-01-20T12:31:26.965Z,129.38
2023-01-20T12:32:27.049Z,129.38
2023-01-20T12:33:27.137Z,106.88
2023-01-20T12:34:27.294Z,95.62
2023-01-20T12:35:27.483Z,95.62
2023-01-20T12:36:27.569Z,101.25
2023-01-20T12:37:27.755Z,101.25
2023-01-20T12:38:27.901Z,101.25
2023-01-20T12:39:28.055Z,95.62
2023-01-20T12:40:28.218Z,95.62
2023-01-20T12:41:28.402Z,101.25
2023-01-20T12:42:28.547Z,95.62
2023-01-20T12:43:28.718Z,90.00
2023-01-20T12:44:28.818Z,78.75
2023-01-20T12:45:28.899Z,84.38
2023-01-20T12:46:30.504Z,84.38
2023-01-20T12:47:29.925Z,84.38
2023-01-20T12:48:29.407Z,90.00
2023-01-20T12:49:30.207Z,95.62
2023-01-20T12:50:29.662Z,106.88
2023-01-20T12:51:29.815Z,101.25
2023-01-20T12:52:30.039Z,95.62
2023-01-20T12:53:30.154Z,90.00
2023-01-20T12:55:37.634Z,84.38
2023-01-20T12:56:37.771Z,78.75
2023-01-20T12:57:37.897Z,73.12
2023-01-20T12:58:38.055Z,73.12
2023-01-20T12:59:38.173Z,73.12
2023-01-20T13:00:38.295Z,73.12
2023-01-20T13:01:38.426Z,67.50
2023-01-20T13:02:38.603Z,61.88
2023-01-20T13:03:38.676Z,67.50
2023-01-20T13:04:38.806Z,67.50